Time;durP1;ratioP1;P1;durP2;ratioP2;P2;SDS_P1;SDS_P2;PMS_P1;PMS_P2;Temp;Humidity;BMP_temperature;BMP_pressure;BME280_temperature;BME280_humidity;BME280_pressure;Samples;Min_cycle;Max_cycle;Signal;HPM_P1;HPM_P2
2022/12/18 00:02:17;;;;;;;7.93;6.10;;;;;;;;;;4967887;28;20955;-55
2022/12/18 00:04:43;;;;;;;6.73;5.40;;;;;;;;;;4969977;28;20463;-56
2022/12/18 00:07:09;;;;;;;8.97;6.00;;;;;;;;;;4962753;28;20427;-56
2022/12/18 00:09:36;;;;;;;7.73;6.10;;;;;;;;;;4967487;28;21020;-55
2022/12/18 00:12:02;;;;;;;8.30;6.53;;;;;;;;;;4966612;28;20486;-56
2022/12/18 00:14:34;;;;;;;8.73;5.90;;;;;;;;;;4968775;28;20765;-56
2022/12/18 00:17:00;;;;;;;7.93;5.17;;;;;;;;;;4968183;28;20427;-55
2022/12/18 00:19:27;;;;;;;8.90;5.57;;;;;;;;;;4969474;28;20477;-55
2022/12/18 00:21:53;;;;;;;7.63;5.50;;;;;;;;;;4966498;28;20435;-55
2022/12/18 00:24:19;;;;;;;5.90;5.20;;;;;;;;;;4968181;28;21017;-56
2022/12/18 00:26:45;;;;;;;5.77;4.57;;;;;;;;;;4967534;28;20486;-56
2022/12/18 00:29:13;;;;;;;7.63;5.77;;;;;;;;;;4968391;28;20469;-56
2022/12/18 00:31:40;;;;;;;6.73;4.83;;;;;;;;;;4966897;28;20435;-55
2022/12/18 00:34:06;;;;;;;6.50;5.17;;;;;;;;;;4966807;28;20423;-56
2022/12/18 00:36:33;;;;;;;5.97;4.43;;;;;;;;;;4965346;28;20439;-56
2022/12/18 00:39:00;;;;;;;6.83;4.40;;;;;;;;;;4968280;28;20446;-55
2022/12/18 00:44:13;;;;;;;4.50;3.97;;;;;;;;;;4961181;28;20494;-56
2022/12/18 00:46:39;;;;;;;4.87;4.27;;;;;;;;;;4966972;28;20450;-56
2022/12/18 00:49:05;;;;;;;5.10;4.30;;;;;;;;;;4968395;28;20470;-56
2022/12/18 00:51:31;;;;;;;7.33;4.17;;;;;;;;;;4966959;28;20439;-56
2022/12/18 00:53:57;;;;;;;5.80;4.47;;;;;;;;;;4966686;28;20530;-56
2022/12/18 00:56:24;;;;;;;4.67;3.53;;;;;;;;;;4966932;28;20439;-56
2022/12/18 00:58:50;;;;;;;6.37;4.43;;;;;;;;;;4966632;28;20869;-56
2022/12/18 01:01:16;;;;;;;4.27;3.63;;;;;;;;;;4967639;28;20431;-56
2022/12/18 01:03:44;;;;;;;5.50;4.43;;;;;;;;;;4967143;28;20439;-56
2022/12/18 01:06:14;;;;;;;4.53;3.30;;;;;;;;;;4951055;28;21219;-56
2022/12/18 01:08:41;;;;;;;5.17;3.93;;;;;;;;;;4967442;28;20522;-56
2022/12/18 01:11:08;;;;;;;4.37;3.97;;;;;;;;;;4969492;28;20921;-56
2022/12/18 01:13:34;;;;;;;5.80;3.83;;;;;;;;;;4964344;28;20531;-57
2022/12/18 01:16:00;;;;;;;4.17;3.23;;;;;;;;;;4968702;28;20478;-56
2022/12/18 01:18:30;;;;;;;6.70;4.40;;;;;;;;;;4950868;28;20558;-56
2022/12/18 01:20:56;;;;;;;4.37;3.27;;;;;;;;;;4968727;28;20486;-57
2022/12/18 01:23:22;;;;;;;4.07;3.20;;;;;;;;;;4946910;28;20953;-56
2022/12/18 01:25:48;;;;;;;4.80;3.40;;;;;;;;;;4968774;28;20478;-56
2022/12/18 01:28:15;;;;;;;4.07;3.27;;;;;;;;;;4966592;28;20928;-56
2022/12/18 01:30:41;;;;;;;4.60;3.63;;;;;;;;;;4968238;28;20454;-56
2022/12/18 01:33:07;;;;;;;4.53;3.73;;;;;;;;;;4965677;28;20485;-56
2022/12/18 01:35:36;;;;;;;3.87;3.43;;;;;;;;;;4966210;28;20510;-56
2022/12/18 01:38:02;;;;;;;4.73;3.20;;;;;;;;;;4963559;28;20438;-57
2022/12/18 01:40:28;;;;;;;5.37;3.63;;;;;;;;;;4968181;28;20884;-56
2022/12/18 01:42:54;;;;;;;5.13;3.70;;;;;;;;;;4965120;28;20443;-56
2022/12/18 01:45:28;;;;;;;4.03;3.40;;;;;;;;;;4967017;28;20435;-56
2022/12/18 01:47:55;;;;;;;5.00;3.53;;;;;;;;;;4966241;28;20466;-56
2022/12/18 01:50:26;;;;;;;3.93;3.53;;;;;;;;;;4968733;28;20395;-56
2022/12/18 01:53:10;;;;;;;3.70;2.87;;;;;;;;;;4964200;28;20498;-56
2022/12/18 01:55:47;;;;;;;4.80;3.30;;;;;;;;;;4967378;28;20933;-56
2022/12/18 01:58:13;;;;;;;6.23;3.83;;;;;;;;;;4965585;28;20445;-56
2022/12/18 02:00:39;;;;;;;4.47;2.90;;;;;;;;;;4967864;28;20446;-56
2022/12/18 02:03:05;;;;;;;5.53;3.60;;;;;;;;;;4966460;28;20494;-56
2022/12/18 02:05:35;;;;;;;4.53;3.07;;;;;;;;;;4949445;28;20534;-56
2022/12/18 02:08:10;;;;;;;4.90;3.13;;;;;;;;;;4964104;28;20482;-56
2022/12/18 02:10:40;;;;;;;5.17;3.13;;;;;;;;;;4967417;28;20435;-56
2022/12/18 02:13:12;;;;;;;4.53;3.00;;;;;;;;;;4964250;28;20508;-56
2022/12/18 02:15:44;;;;;;;4.40;3.13;;;;;;;;;;4965292;28;20435;-56
2022/12/18 02:18:18;;;;;;;4.10;3.33;;;;;;;;;;4965421;28;20561;-56
2022/12/18 02:20:47;;;;;;;5.37;3.40;;;;;;;;;;4965929;28;20408;-56
2022/12/18 02:23:13;;;;;;;5.47;3.27;;;;;;;;;;4963949;28;20834;-56
2022/12/18 02:25:58;;;;;;;3.50;3.07;;;;;;;;;;4948211;28;20904;-56
2022/12/18 02:28:26;;;;;;;5.43;3.70;;;;;;;;;;4964786;28;20502;-56
2022/12/18 02:30:53;;;;;;;6.67;3.83;;;;;;;;;;4967018;28;20419;-56
2022/12/18 02:33:20;;;;;;;5.40;3.60;;;;;;;;;;4965353;28;20435;-56
2022/12/18 02:35:47;;;;;;;4.63;3.10;;;;;;;;;;4965149;28;20438;-56
2022/12/18 02:38:15;;;;;;;6.00;3.87;;;;;;;;;;4963348;28;20551;-56
2022/12/18 02:40:41;;;;;;;4.17;3.53;;;;;;;;;;4967102;28;21081;-56
2022/12/18 02:43:11;;;;;;;3.90;2.90;;;;;;;;;;4965515;28;20442;-56
2022/12/18 02:45:47;;;;;;;4.17;3.13;;;;;;;;;;4965779;28;20930;-56
2022/12/18 02:48:13;;;;;;;5.63;3.37;;;;;;;;;;4963758;28;20521;-56
2022/12/18 02:50:45;;;;;;;3.43;3.07;;;;;;;;;;4967889;28;20467;-56
2022/12/18 02:53:26;;;;;;;4.77;3.47;;;;;;;;;;4968713;28;20949;-56
2022/12/18 02:55:55;;;;;;;5.27;3.53;;;;;;;;;;4963335;28;20942;-56
2022/12/18 02:58:28;;;;;;;4.07;2.63;;;;;;;;;;4964278;28;20663;-56
2022/12/18 03:00:59;;;;;;;4.40;3.30;;;;;;;;;;4966459;28;20458;-56
2022/12/18 03:03:29;;;;;;;4.23;3.23;;;;;;;;;;4965656;28;20442;-56
2022/12/18 03:06:02;;;;;;;5.63;3.63;;;;;;;;;;4961555;28;20446;-56
2022/12/18 03:08:29;;;;;;;6.23;4.00;;;;;;;;;;4961910;28;20598;-56
2022/12/18 03:11:02;;;;;;;5.67;3.20;;;;;;;;;;4966952;28;20494;-56
2022/12/18 03:13:49;;;;;;;6.17;3.63;;;;;;;;;;4965416;28;20890;-56
2022/12/18 03:16:18;;;;;;;5.60;3.40;;;;;;;;;;4960944;28;20865;-56
2022/12/18 03:18:47;;;;;;;3.83;2.90;;;;;;;;;;4964876;28;20459;-56
2022/12/18 03:21:14;;;;;;;4.17;3.20;;;;;;;;;;4961190;28;20525;-56
2022/12/18 03:23:43;;;;;;;5.27;3.53;;;;;;;;;;4966037;28;20790;-56
2022/12/18 03:26:11;;;;;;;4.93;3.30;;;;;;;;;;4964379;28;20526;-56
2022/12/18 03:28:40;;;;;;;4.77;3.43;;;;;;;;;;4963845;28;20463;-56
2022/12/18 03:31:09;;;;;;;4.47;3.57;;;;;;;;;;4966213;28;20490;-56
2022/12/18 03:33:51;;;;;;;5.57;3.43;;;;;;;;;;4965989;28;20465;-56
2022/12/18 03:36:17;;;;;;;3.93;3.20;;;;;;;;;;4964129;28;20910;-56
2022/12/18 03:38:43;;;;;;;5.87;3.77;;;;;;;;;;4964723;28;20450;-56
2022/12/18 03:41:15;;;;;;;5.23;3.33;;;;;;;;;;4966775;28;20403;-56
2022/12/18 03:43:44;;;;;;;4.43;3.17;;;;;;;;;;4964907;28;20466;-56
2022/12/18 03:46:31;;;;;;;5.73;3.97;;;;;;;;;;4965159;28;20469;-56
2022/12/18 03:49:02;;;;;;;4.73;3.73;;;;;;;;;;4964821;28;20462;-56
2022/12/18 03:51:43;;;;;;;6.00;3.93;;;;;;;;;;4956201;28;20962;-56
2022/12/18 03:54:10;;;;;;;4.33;3.23;;;;;;;;;;4965939;28;20415;-56
2022/12/18 03:56:40;;;;;;;4.30;3.03;;;;;;;;;;4962856;28;20439;-56
2022/12/18 03:59:07;;;;;;;3.57;3.27;;;;;;;;;;4964111;28;21386;-56
2022/12/18 04:01:40;;;;;;;5.40;3.40;;;;;;;;;;4947419;28;20447;-56
2022/12/18 04:04:07;;;;;;;3.60;3.17;;;;;;;;;;4948711;28;20423;-56
2022/12/18 04:06:36;;;;;;;5.10;3.50;;;;;;;;;;4965517;28;20941;-56
2022/12/18 04:09:02;;;;;;;4.87;3.40;;;;;;;;;;4961142;28;20965;-56
2022/12/18 04:11:28;;;;;;;5.57;3.87;;;;;;;;;;4968099;28;20931;-56
2022/12/18 04:13:58;;;;;;;5.17;3.20;;;;;;;;;;4969167;28;20546;-56
2022/12/18 04:16:24;;;;;;;3.73;3.33;;;;;;;;;;4968101;28;20482;-56
2022/12/18 04:18:50;;;;;;;3.90;3.03;;;;;;;;;;4966954;28;20541;-56
2022/12/18 04:21:16;;;;;;;4.77;3.33;;;;;;;;;;4966518;28;20439;-56
2022/12/18 04:23:50;;;;;;;6.37;3.57;;;;;;;;;;4968352;28;20443;-56
2022/12/18 04:26:16;;;;;;;6.03;3.77;;;;;;;;;;4951495;28;21057;-56
2022/12/18 04:28:42;;;;;;;4.27;3.17;;;;;;;;;;4966568;28;20521;-56
2022/12/18 04:31:08;;;;;;;4.63;3.53;;;;;;;;;;4968359;28;20881;-56
2022/12/18 04:33:34;;;;;;;5.63;3.70;;;;;;;;;;4968513;28;20790;-56
2022/12/18 04:36:00;;;;;;;4.37;3.00;;;;;;;;;;4965881;28;20490;-56
2022/12/18 04:38:26;;;;;;;5.03;2.93;;;;;;;;;;4966071;28;20437;-56
2022/12/18 04:40:52;;;;;;;4.73;2.93;;;;;;;;;;4969168;28;20596;-56
2022/12/18 04:43:18;;;;;;;4.50;3.23;;;;;;;;;;4968188;28;20626;-56
2022/12/18 04:45:44;;;;;;;3.43;2.73;;;;;;;;;;4968745;28;20853;-56
2022/12/18 04:48:10;;;;;;;4.60;3.37;;;;;;;;;;4966688;28;20614;-56
2022/12/18 04:50:36;;;;;;;3.53;2.93;;;;;;;;;;4969604;28;20427;-56
2022/12/18 04:53:02;;;;;;;4.43;3.50;;;;;;;;;;4963706;28;20474;-56
2022/12/18 04:55:28;;;;;;;4.70;3.10;;;;;;;;;;4964022;28;20918;-56
2022/12/18 04:57:54;;;;;;;3.50;3.00;;;;;;;;;;4966949;28;20949;-56
2022/12/18 05:00:21;;;;;;;3.57;2.63;;;;;;;;;;4966741;28;20429;-56
2022/12/18 05:02:47;;;;;;;3.70;3.20;;;;;;;;;;4968125;28;21170;-56
2022/12/18 05:05:13;;;;;;;4.67;3.23;;;;;;;;;;4968848;28;20914;-56
2022/12/18 05:07:40;;;;;;;4.80;2.77;;;;;;;;;;4961602;28;20514;-56
2022/12/18 05:10:06;;;;;;;4.80;2.70;;;;;;;;;;4950308;29;20491;-56
2022/12/18 05:12:32;;;;;;;3.97;3.10;;;;;;;;;;4957427;28;20427;-56
2022/12/18 05:14:58;;;;;;;3.10;2.80;;;;;;;;;;4967587;28;20481;-56
2022/12/18 05:17:24;;;;;;;3.40;2.47;;;;;;;;;;4965440;28;20431;-56
2022/12/18 05:19:50;;;;;;;3.77;3.13;;;;;;;;;;4934669;29;20444;-56
2022/12/18 05:22:16;;;;;;;3.73;2.87;;;;;;;;;;4955137;28;20439;-56
2022/12/18 05:24:42;;;;;;;3.53;2.90;;;;;;;;;;4968737;28;20431;-56
2022/12/18 05:27:09;;;;;;;3.50;2.77;;;;;;;;;;4966303;28;20478;-56
2022/12/18 05:29:35;;;;;;;3.40;3.00;;;;;;;;;;4965263;28;20478;-56
2022/12/18 05:32:01;;;;;;;3.63;2.90;;;;;;;;;;4965340;28;20434;-56
2022/12/18 05:34:27;;;;;;;3.77;2.67;;;;;;;;;;4968462;28;20689;-56
2022/12/18 05:36:53;;;;;;;4.53;3.20;;;;;;;;;;4964896;28;20496;-56
2022/12/18 05:39:19;;;;;;;4.07;2.83;;;;;;;;;;4967050;28;20435;-56
2022/12/18 05:41:45;;;;;;;3.67;3.10;;;;;;;;;;4966752;28;20435;-56
2022/12/18 05:44:11;;;;;;;4.17;2.83;;;;;;;;;;4968459;28;20414;-56
2022/12/18 05:46:37;;;;;;;3.83;3.00;;;;;;;;;;4946569;28;20439;-56
2022/12/18 05:49:03;;;;;;;3.87;3.13;;;;;;;;;;4965975;28;20946;-56
2022/12/18 05:51:29;;;;;;;6.07;2.97;;;;;;;;;;4956077;28;21130;-56
2022/12/18 05:53:55;;;;;;;4.23;3.40;;;;;;;;;;4967160;28;20502;-56
2022/12/18 05:56:28;;;;;;;3.47;2.67;;;;;;;;;;4955099;28;20454;-56
2022/12/18 05:58:55;;;;;;;4.30;3.40;;;;;;;;;;4964072;28;20469;-56
2022/12/18 06:01:22;;;;;;;4.83;3.07;;;;;;;;;;4965698;28;20430;-56
2022/12/18 06:03:49;;;;;;;3.37;2.60;;;;;;;;;;4966296;28;20899;-56
2022/12/18 06:06:23;;;;;;;4.63;3.40;;;;;;;;;;4966498;28;20473;-56
2022/12/18 06:08:56;;;;;;;3.23;2.60;;;;;;;;;;4948864;28;20455;-56
2022/12/18 06:11:23;;;;;;;3.80;3.17;;;;;;;;;;4967180;28;20438;-56
2022/12/18 06:13:53;;;;;;;4.03;2.93;;;;;;;;;;4957035;28;20440;-56
2022/12/18 06:16:19;;;;;;;4.80;3.10;;;;;;;;;;4957005;28;20442;-56
2022/12/18 06:18:45;;;;;;;3.47;2.73;;;;;;;;;;4954192;28;20463;-56
2022/12/18 06:21:11;;;;;;;3.93;3.10;;;;;;;;;;4965099;28;20427;-56
2022/12/18 06:23:38;;;;;;;4.20;2.37;;;;;;;;;;4966027;28;20897;-56
2022/12/18 06:26:11;;;;;;;3.37;2.93;;;;;;;;;;4967552;28;20442;-56
2022/12/18 06:28:37;;;;;;;4.43;3.40;;;;;;;;;;4945781;28;20462;-56
2022/12/18 06:31:04;;;;;;;2.93;2.60;;;;;;;;;;4966256;28;20931;-56
2022/12/18 06:33:30;;;;;;;4.83;2.93;;;;;;;;;;4966572;28;20419;-56
2022/12/18 06:36:04;;;;;;;4.07;2.93;;;;;;;;;;4963084;28;20428;-56
2022/12/18 06:38:31;;;;;;;3.90;2.90;;;;;;;;;;4965179;28;20419;-56
2022/12/18 06:40:57;;;;;;;3.77;2.80;;;;;;;;;;4965970;28;20430;-56
2022/12/18 06:43:23;;;;;;;4.33;3.03;;;;;;;;;;4966514;28;20427;-56
2022/12/18 06:45:52;;;;;;;3.23;2.80;;;;;;;;;;4967117;28;20939;-56
2022/12/18 06:48:19;;;;;;;3.87;3.03;;;;;;;;;;4964929;28;20832;-56
2022/12/18 06:50:45;;;;;;;4.10;2.77;;;;;;;;;;4966111;28;20451;-56
2022/12/18 06:53:11;;;;;;;4.20;3.30;;;;;;;;;;4959084;28;20913;-56
2022/12/18 06:55:37;;;;;;;4.33;2.70;;;;;;;;;;4966728;28;20478;-56
2022/12/18 06:58:03;;;;;;;4.03;2.83;;;;;;;;;;4963341;28;20593;-56
2022/12/18 07:00:29;;;;;;;3.13;2.70;;;;;;;;;;4965049;28;20447;-56
2022/12/18 07:02:55;;;;;;;4.10;3.03;;;;;;;;;;4960890;28;21043;-56
2022/12/18 07:05:21;;;;;;;6.13;2.93;;;;;;;;;;4961333;28;20439;-56
2022/12/18 07:07:48;;;;;;;3.60;3.00;;;;;;;;;;4963778;28;20514;-56
2022/12/18 07:10:14;;;;;;;3.40;3.10;;;;;;;;;;4967329;28;20478;-56
2022/12/18 07:12:40;;;;;;;4.83;3.00;;;;;;;;;;4961482;28;20856;-56
2022/12/18 07:15:07;;;;;;;3.07;2.40;;;;;;;;;;4970552;28;20455;-56
2022/12/18 07:17:33;;;;;;;3.47;2.37;;;;;;;;;;4964890;28;20451;-56
2022/12/18 07:19:59;;;;;;;3.50;2.80;;;;;;;;;;4960932;28;20435;-56
2022/12/18 07:22:26;;;;;;;4.50;3.03;;;;;;;;;;4943823;28;20427;-56
2022/12/18 07:24:52;;;;;;;3.73;2.83;;;;;;;;;;4960044;28;20789;-56
2022/12/18 07:27:18;;;;;;;3.73;2.63;;;;;;;;;;4962932;28;20514;-56
2022/12/18 07:29:44;;;;;;;3.57;2.73;;;;;;;;;;4966798;28;20451;-56
2022/12/18 07:32:10;;;;;;;3.13;2.60;;;;;;;;;;4966805;28;20494;-56
2022/12/18 07:34:36;;;;;;;3.53;2.87;;;;;;;;;;4948776;28;20424;-56
2022/12/18 07:37:02;;;;;;;2.57;2.37;;;;;;;;;;4952242;28;20826;-56
2022/12/18 07:39:28;;;;;;;3.17;2.67;;;;;;;;;;4959697;28;20934;-56
2022/12/18 07:44:39;;;;;;;2.97;2.50;;;;;;;;;;4970944;28;20474;-56
2022/12/18 07:47:05;;;;;;;2.40;2.20;;;;;;;;;;4970893;28;20427;-56
2022/12/18 07:49:31;;;;;;;4.33;3.10;;;;;;;;;;4964689;28;20817;-56
2022/12/18 07:51:57;;;;;;;3.23;2.90;;;;;;;;;;4971844;28;20907;-56
2022/12/18 07:54:24;;;;;;;4.20;3.03;;;;;;;;;;4951608;28;20431;-56
2022/12/18 07:56:50;;;;;;;3.10;2.23;;;;;;;;;;4966821;28;20442;-56
2022/12/18 07:59:16;;;;;;;3.30;2.43;;;;;;;;;;4968828;28;20435;-56
2022/12/18 08:01:42;;;;;;;4.90;3.53;;;;;;;;;;4966317;28;20845;-56
2022/12/18 08:04:08;;;;;;;4.33;3.33;;;;;;;;;;4968632;28;20957;-56
2022/12/18 08:06:34;;;;;;;8.40;3.80;;;;;;;;;;4960272;28;20466;-56
2022/12/18 08:09:00;;;;;;;4.37;2.77;;;;;;;;;;4969312;28;20467;-56
2022/12/18 08:11:27;;;;;;;5.03;2.80;;;;;;;;;;4969310;28;20957;-56
2022/12/18 08:13:53;;;;;;;4.07;2.93;;;;;;;;;;4968745;28;20438;-56
2022/12/18 08:16:20;;;;;;;4.13;2.97;;;;;;;;;;4969996;28;20856;-56
2022/12/18 08:18:46;;;;;;;3.27;2.90;;;;;;;;;;4969045;28;20462;-56
2022/12/18 08:21:16;;;;;;;4.47;2.83;;;;;;;;;;4967574;28;20435;-56
2022/12/18 08:23:43;;;;;;;4.17;3.03;;;;;;;;;;4969550;28;20404;-56
2022/12/18 08:26:09;;;;;;;4.63;3.37;;;;;;;;;;4970455;28;20411;-56
2022/12/18 08:28:35;;;;;;;4.80;2.80;;;;;;;;;;4964231;28;20477;-56
2022/12/18 08:31:01;;;;;;;3.83;3.20;;;;;;;;;;4960062;28;20540;-56
2022/12/18 08:33:27;;;;;;;4.27;2.97;;;;;;;;;;4962609;28;20872;-56
2022/12/18 08:35:53;;;;;;;4.87;3.07;;;;;;;;;;4968675;28;20934;-56
2022/12/18 08:38:19;;;;;;;4.67;3.27;;;;;;;;;;4969020;28;20396;-56
2022/12/18 08:40:46;;;;;;;4.50;3.10;;;;;;;;;;4968761;28;20442;-56
2022/12/18 08:45:56;;;;;;;3.60;3.23;;;;;;;;;;4969610;28;20481;-56
2022/12/18 08:48:22;;;;;;;4.30;2.93;;;;;;;;;;4970148;28;20807;-56
2022/12/18 08:50:56;;;;;;;4.17;2.63;;;;;;;;;;4969354;28;20523;-56
2022/12/18 08:53:25;;;;;;;3.30;2.83;;;;;;;;;;4969341;28;20914;-56
2022/12/18 08:55:51;;;;;;;4.77;2.67;;;;;;;;;;4969436;28;20757;-56
2022/12/18 08:58:17;;;;;;;4.93;3.10;;;;;;;;;;4969439;28;21183;-56
2022/12/18 09:00:43;;;;;;;4.17;3.30;;;;;;;;;;4968644;28;20445;-56
2022/12/18 09:03:13;;;;;;;3.97;2.90;;;;;;;;;;4969242;28;20825;-56
2022/12/18 09:05:39;;;;;;;5.63;3.27;;;;;;;;;;4969162;28;20443;-56
2022/12/18 09:08:05;;;;;;;3.93;3.23;;;;;;;;;;4965086;28;20435;-56
2022/12/18 09:10:32;;;;;;;5.33;3.57;;;;;;;;;;4968621;28;20879;-56
2022/12/18 09:12:58;;;;;;;5.80;3.70;;;;;;;;;;4968750;28;20435;-56
2022/12/18 09:15:24;;;;;;;4.80;3.43;;;;;;;;;;4950897;28;20857;-56
2022/12/18 09:17:50;;;;;;;4.70;4.13;;;;;;;;;;4968083;28;20973;-56
2022/12/18 09:20:19;;;;;;;6.47;4.00;;;;;;;;;;4952000;28;20761;-56
2022/12/18 09:22:45;;;;;;;7.13;4.10;;;;;;;;;;4966780;28;20435;-56
2022/12/18 09:25:11;;;;;;;5.53;3.20;;;;;;;;;;4968315;28;20430;-57
2022/12/18 09:27:39;;;;;;;5.07;3.93;;;;;;;;;;4968487;28;20491;-56
2022/12/18 09:30:05;;;;;;;4.83;3.67;;;;;;;;;;4969063;28;20741;-56
2022/12/18 09:32:31;;;;;;;6.07;3.93;;;;;;;;;;4967921;28;20854;-56
2022/12/18 09:34:57;;;;;;;4.93;3.60;;;;;;;;;;4967852;28;20878;-56
2022/12/18 09:37:23;;;;;;;4.40;3.30;;;;;;;;;;4966482;28;20519;-56
2022/12/18 09:39:49;;;;;;;6.13;4.00;;;;;;;;;;4969048;28;20442;-55
2022/12/18 09:42:22;;;;;;;4.30;3.27;;;;;;;;;;4967800;28;20440;-56
2022/12/18 09:44:52;;;;;;;3.93;3.37;;;;;;;;;;4968648;28;20414;-56
2022/12/18 09:47:24;;;;;;;6.63;3.53;;;;;;;;;;4966430;28;20434;-55
2022/12/18 09:49:52;;;;;;;5.43;3.70;;;;;;;;;;4968056;28;20458;-56
2022/12/18 09:52:40;;;;;;;4.23;3.43;;;;;;;;;;4965374;28;20771;-56
2022/12/18 09:55:11;;;;;;;5.93;3.90;;;;;;;;;;4968438;28;20486;-56
2022/12/18 09:57:41;;;;;;;4.53;3.03;;;;;;;;;;4967845;28;20435;-56
2022/12/18 10:00:25;;;;;;;4.23;3.70;;;;;;;;;;4967397;28;20921;-56
2022/12/18 10:02:53;;;;;;;4.77;4.00;;;;;;;;;;4967736;28;20391;-56
2022/12/18 10:05:35;;;;;;;4.17;3.20;;;;;;;;;;4968431;28;20476;-56
2022/12/18 10:08:19;;;;;;;3.70;3.23;;;;;;;;;;4956339;28;20969;-56
2022/12/18 10:10:51;;;;;;;5.63;4.60;;;;;;;;;;4963798;28;20957;-56
2022/12/18 10:13:35;;;;;;;4.80;3.20;;;;;;;;;;4964152;28;20419;-57
2022/12/18 10:16:07;;;;;;;5.93;3.37;;;;;;;;;;4967029;28;20498;-57
2022/12/18 10:18:45;;;;;;;5.13;4.00;;;;;;;;;;4965330;28;20467;-56
2022/12/18 10:21:13;;;;;;;4.50;3.43;;;;;;;;;;4981484;28;20415;-56
2022/12/18 10:24:03;;;;;;;4.83;3.43;;;;;;;;;;4975036;28;20895;-62
2022/12/18 10:26:29;;;;;;;5.17;3.60;;;;;;;;;;4968657;28;20430;-56
2022/12/18 10:28:56;;;;;;;6.17;4.03;;;;;;;;;;4961952;28;20526;-56
2022/12/18 10:31:23;;;;;;;6.37;3.73;;;;;;;;;;4967509;28;20893;-56
2022/12/18 10:33:49;;;;;;;12.80;3.73;;;;;;;;;;4970958;28;20439;-56
2022/12/18 10:36:16;;;;;;;5.37;3.63;;;;;;;;;;4958370;28;20459;-56
2022/12/18 10:38:42;;;;;;;5.07;3.70;;;;;;;;;;4960127;28;20941;-57
2022/12/18 10:41:21;;;;;;;7.13;4.27;;;;;;;;;;4974166;28;20545;-56
2022/12/18 10:43:48;;;;;;;6.03;3.80;;;;;;;;;;4961262;28;20918;-57
2022/12/18 10:46:21;;;;;;;5.03;3.87;;;;;;;;;;4963393;28;20442;-57
2022/12/18 10:48:47;;;;;;;5.90;3.93;;;;;;;;;;4963600;28;20998;-56
2022/12/18 10:51:28;;;;;;;4.87;3.90;;;;;;;;;;4947341;28;20934;-56
2022/12/18 10:53:56;;;;;;;4.50;3.53;;;;;;;;;;4972922;28;20915;-57
2022/12/18 10:56:24;;;;;;;4.47;3.03;;;;;;;;;;4975623;28;20526;-56
2022/12/18 10:59:10;;;;;;;5.17;3.60;;;;;;;;;;4943817;28;20423;-56
2022/12/18 11:01:54;;;;;;;7.90;4.13;;;;;;;;;;4964331;28;20470;-56
2022/12/18 11:04:27;;;;;;;6.03;4.23;;;;;;;;;;4958773;28;20449;-56
2022/12/18 11:07:00;;;;;;;4.90;3.37;;;;;;;;;;4963341;28;20441;-56
2022/12/18 11:09:28;;;;;;;5.57;3.50;;;;;;;;;;4966150;28;21104;-56
2022/12/18 11:11:55;;;;;;;5.17;3.80;;;;;;;;;;4964346;28;20442;-56
2022/12/18 11:14:23;;;;;;;3.93;3.27;;;;;;;;;;4964709;28;20454;-56
2022/12/18 11:16:50;;;;;;;5.30;3.47;;;;;;;;;;4956461;28;20420;-56
2022/12/18 11:19:22;;;;;;;6.17;3.50;;;;;;;;;;4983032;28;20517;-56
2022/12/18 11:21:49;;;;;;;4.27;3.50;;;;;;;;;;4978308;28;20512;-57
2022/12/18 11:24:20;;;;;;;4.60;3.40;;;;;;;;;;4970153;28;20453;-56
2022/12/18 11:26:46;;;;;;;3.83;3.30;;;;;;;;;;4963713;28;20442;-56
2022/12/18 11:29:17;;;;;;;5.67;3.57;;;;;;;;;;4961848;28;20470;-57
2022/12/18 11:31:43;;;;;;;5.20;3.83;;;;;;;;;;4960163;28;20445;-56
2022/12/18 11:34:17;;;;;;;5.53;3.53;;;;;;;;;;4963854;28;20427;-56
2022/12/18 11:36:45;;;;;;;4.83;3.33;;;;;;;;;;4962340;28;20430;-56
2022/12/18 11:39:25;;;;;;;4.30;3.90;;;;;;;;;;4966856;28;20510;-56
2022/12/18 11:42:10;;;;;;;6.30;3.97;;;;;;;;;;4964116;28;20850;-56
2022/12/18 11:44:40;;;;;;;7.17;4.13;;;;;;;;;;4961659;28;20439;-56
2022/12/18 11:47:13;;;;;;;6.03;4.37;;;;;;;;;;4965617;28;20826;-56
2022/12/18 11:49:42;;;;;;;6.63;3.27;;;;;;;;;;4964089;28;20475;-56
2022/12/18 11:52:24;;;;;;;4.37;3.67;;;;;;;;;;4962686;28;20427;-56
2022/12/18 11:54:53;;;;;;;4.47;3.43;;;;;;;;;;4960546;28;20431;-56
2022/12/18 11:57:26;;;;;;;5.40;4.37;;;;;;;;;;4965697;28;20485;-57
2022/12/18 12:00:11;;;;;;;4.80;3.60;;;;;;;;;;4965130;28;20960;-56
2022/12/18 12:02:37;;;;;;;5.53;3.90;;;;;;;;;;4965558;28;20435;-57
2022/12/18 12:05:06;;;;;;;5.33;3.53;;;;;;;;;;4966049;28;20750;-57
2022/12/18 12:07:44;;;;;;;9.10;3.90;;;;;;;;;;4963293;28;20415;-56
2022/12/18 12:10:12;;;;;;;4.93;3.37;;;;;;;;;;4966075;28;20544;-57
2022/12/18 12:12:47;;;;;;;4.37;3.20;;;;;;;;;;4965185;28;20435;-57
2022/12/18 12:15:21;;;;;;;5.27;3.60;;;;;;;;;;4961556;28;21009;-56
2022/12/18 12:18:08;;;;;;;5.43;4.23;;;;;;;;;;4953252;28;20964;-56
2022/12/18 12:20:50;;;;;;;6.17;4.40;;;;;;;;;;4954930;28;20435;-56
2022/12/18 12:23:22;;;;;;;5.30;4.40;;;;;;;;;;4959089;28;20439;-57
2022/12/18 12:26:07;;;;;;;5.63;4.27;;;;;;;;;;4958825;28;20744;-57
2022/12/18 12:28:36;;;;;;;7.80;4.50;;;;;;;;;;4961262;28;20493;-56
2022/12/18 12:31:06;;;;;;;5.80;3.87;;;;;;;;;;4958701;28;20923;-57
2022/12/18 12:33:38;;;;;;;7.30;4.30;;;;;;;;;;4938922;28;20712;-57
2022/12/18 12:36:03;;;;;;;5.20;3.63;;;;;;;;;;4960326;28;20455;-57
2022/12/18 12:38:37;;;;;;;5.53;4.07;;;;;;;;;;4957525;28;20913;-57
2022/12/18 12:43:12;;;;;;;5.83;4.77;;;;;;;;;;4956842;28;20188;-57
2022/12/18 12:43:56;;;;;;;4.73;4.00;;;;;;;;;;4961129;28;20431;-57
2022/12/18 12:46:23;;;;;;;5.43;4.67;;;;;;;;;;4958451;28;20431;-57
2022/12/18 12:48:50;;;;;;;4.60;3.80;;;;;;;;;;4965225;28;20961;-57
2022/12/18 12:51:19;;;;;;;6.03;4.97;;;;;;;;;;4959593;28;20431;-57
2022/12/18 12:53:46;;;;;;;6.07;4.90;;;;;;;;;;4961025;28;20994;-57
2022/12/18 12:56:13;;;;;;;7.53;4.43;;;;;;;;;;4961288;28;20436;-57
2022/12/18 12:58:48;;;;;;;5.37;4.00;;;;;;;;;;4964730;28;20522;-57
2022/12/18 13:01:17;;;;;;;9.90;4.60;;;;;;;;;;4958617;28;20877;-57
2022/12/18 13:03:49;;;;;;;6.57;4.83;;;;;;;;;;4963927;28;20439;-57
2022/12/18 13:06:20;;;;;;;8.27;4.90;;;;;;;;;;4961298;28;20918;-57
2022/12/18 13:08:54;;;;;;;6.97;4.80;;;;;;;;;;4954485;28;20519;-57
2022/12/18 13:14:23;;;;;;;5.90;4.20;;;;;;;;;;4959205;28;20435;-57
2022/12/18 13:16:50;;;;;;;7.83;5.30;;;;;;;;;;4957546;28;20443;-57
2022/12/18 13:19:23;;;;;;;6.30;4.87;;;;;;;;;;4966098;28;20465;-57
2022/12/18 13:21:54;;;;;;;7.50;4.90;;;;;;;;;;4962967;28;20846;-57
2022/12/18 13:24:29;;;;;;;7.63;4.90;;;;;;;;;;4958542;28;20442;-57
2022/12/18 13:26:55;;;;;;;6.60;5.37;;;;;;;;;;4956953;28;21253;-57
2022/12/18 13:29:41;;;;;;;7.73;5.10;;;;;;;;;;4958436;28;20464;-57
2022/12/18 13:32:20;;;;;;;6.57;4.87;;;;;;;;;;4942481;28;20439;-57
2022/12/18 13:34:46;;;;;;;7.27;5.23;;;;;;;;;;4957915;28;20437;-57
2022/12/18 13:37:39;;;;;;;7.10;4.70;;;;;;;;;;4956475;28;20506;-57
2022/12/18 13:40:25;;;;;;;7.60;5.37;;;;;;;;;;4964893;28;20411;-57
2022/12/18 13:45:41;;;;;;;7.03;6.00;;;;;;;;;;4959732;28;20478;-57
2022/12/18 13:48:15;;;;;;;8.40;6.10;;;;;;;;;;4958215;28;20437;-57
2022/12/18 13:50:41;;;;;;;7.93;5.33;;;;;;;;;;4960525;28;20788;-57
2022/12/18 13:53:07;;;;;;;5.60;4.93;;;;;;;;;;4958523;28;20424;-57
2022/12/18 13:55:34;;;;;;;6.80;4.87;;;;;;;;;;4965017;28;20423;-57
2022/12/18 13:58:06;;;;;;;7.90;5.87;;;;;;;;;;4958302;28;20431;-57
2022/12/18 14:00:32;;;;;;;9.30;5.17;;;;;;;;;;4964645;28;20607;-57
2022/12/18 14:02:59;;;;;;;9.53;6.50;;;;;;;;;;4956047;28;20431;-57
2022/12/18 14:05:29;;;;;;;8.07;5.50;;;;;;;;;;4959418;28;20438;-57
2022/12/18 14:07:56;;;;;;;9.27;5.83;;;;;;;;;;4954368;28;20439;-57
2022/12/18 14:10:22;;;;;;;7.53;6.23;;;;;;;;;;4960549;28;20504;-57
2022/12/18 14:12:59;;;;;;;7.37;5.70;;;;;;;;;;4960726;28;20438;-57
2022/12/18 14:15:27;;;;;;;6.70;5.23;;;;;;;;;;4957087;28;20765;-57
2022/12/18 14:17:56;;;;;;;9.63;6.27;;;;;;;;;;4962618;28;20973;-57
2022/12/18 14:20:23;;;;;;;9.63;7.27;;;;;;;;;;4962949;28;20439;-57
2022/12/18 14:22:49;;;;;;;8.87;5.50;;;;;;;;;;4960660;28;20435;-57
2022/12/18 14:25:15;;;;;;;8.77;5.93;;;;;;;;;;4954787;28;20444;-57
2022/12/18 14:27:46;;;;;;;8.37;6.43;;;;;;;;;;4956889;28;20887;-57
2022/12/18 14:30:25;;;;;;;7.97;5.60;;;;;;;;;;4967210;28;20873;-57
2022/12/18 14:33:09;;;;;;;9.97;6.77;;;;;;;;;;4961919;28;20451;-59
2022/12/18 14:35:37;;;;;;;8.53;6.00;;;;;;;;;;4964552;28;20934;-57
2022/12/18 14:38:15;;;;;;;9.63;6.10;;;;;;;;;;4961427;28;20696;-57
2022/12/18 14:40:42;;;;;;;10.97;6.10;;;;;;;;;;4960899;28;20439;-57
2022/12/18 14:43:11;;;;;;;9.77;6.33;;;;;;;;;;4964043;28;20797;-57
2022/12/18 14:45:37;;;;;;;8.57;6.40;;;;;;;;;;4964580;28;20427;-57
2022/12/18 14:48:07;;;;;;;8.37;6.10;;;;;;;;;;4962794;28;20442;-57
2022/12/18 14:50:34;;;;;;;8.47;5.90;;;;;;;;;;4965966;28;20882;-57
2022/12/18 14:53:00;;;;;;;7.93;6.27;;;;;;;;;;4960108;28;20798;-57
2022/12/18 14:55:26;;;;;;;9.40;6.27;;;;;;;;;;4963089;28;20945;-57
2022/12/18 14:57:54;;;;;;;7.83;5.90;;;;;;;;;;4960065;28;21119;-57
2022/12/18 15:00:22;;;;;;;10.00;6.90;;;;;;;;;;4945632;28;20451;-57
2022/12/18 15:02:51;;;;;;;8.10;6.80;;;;;;;;;;4957559;28;20922;-57
2022/12/18 15:05:17;;;;;;;8.23;5.37;;;;;;;;;;4959753;28;20435;-57
2022/12/18 15:07:47;;;;;;;11.57;6.73;;;;;;;;;;4959938;28;20435;-57
2022/12/18 15:10:16;;;;;;;9.40;6.33;;;;;;;;;;4963674;28;20459;-58